Time;durP1;ratioP1;P1;durP2;ratioP2;P2;SDS_P1;SDS_P2;PMS_P1;PMS_P2;Temp;Humidity;BMP_temperature;BMP_pressure;BME280_temperature;BME280_humidity;BME280_pressure;Samples;Min_cycle;Max_cycle;Signal;HPM_P1;HPM_P2
2023/08/19 00:06:55;;;;;;;21.23;15.07;;;;;;;23.11;68.55;101250.22;15808120;28;20048;-58
2023/08/19 00:14:30;;;;;;;17.88;15.05;;;;;;;22.26;71.71;101269.38;15808164;28;20051;-56
2023/08/19 00:22:05;;;;;;;20.73;15.10;;;;;;;22.08;72.93;101267.97;15808919;28;20048;-57
2023/08/19 00:29:38;;;;;;;16.70;15.00;;;;;;;22.51;70.96;101263.84;15807306;28;20091;-55
2023/08/19 00:37:13;;;;;;;19.90;15.05;;;;;;;22.56;70.93;101263.81;15806759;28;20053;-58
2023/08/19 00:44:46;;;;;;;18.35;15.15;;;;;;;22.91;69.34;101260.19;15771134;28;20580;-56
2023/08/19 00:52:21;;;;;;;15.80;14.30;;;;;;;22.83;69.06;101258.00;15829768;28;20051;-56
2023/08/19 00:59:54;;;;;;;16.20;14.02;;;;;;;22.84;69.09;101259.63;15834847;28;20040;-56
2023/08/19 01:07:35;;;;;;;21.58;15.52;;;;;;;22.73;69.21;101254.47;15852042;28;20039;-58
2023/08/19 01:15:15;;;;;;;17.27;15.48;;;;;;;22.67;69.64;101240.81;15823454;28;20044;-53
2023/08/19 01:23:00;;;;;;;20.15;15.88;;;;;;;22.77;68.91;101242.69;15787444;28;20497;-54
2023/08/19 01:30:35;;;;;;;24.35;16.27;;;;;;;22.36;70.70;101233.78;15786656;28;20692;-55
2023/08/19 01:38:13;;;;;;;22.00;15.95;;;;;;;22.58;69.47;101228.00;15785370;28;20066;-57
2023/08/19 01:45:48;;;;;;;19.90;17.00;;;;;;;22.32;70.56;101244.47;15785170;28;20039;-56
2023/08/19 01:53:22;;;;;;;22.88;17.80;;;;;;;21.65;73.09;101249.13;15784552;28;20512;-54
2023/08/19 02:00:57;;;;;;;20.23;18.13;;;;;;;21.88;72.41;101238.75;15784315;28;20051;-57
2023/08/19 02:08:30;;;;;;;23.77;18.88;;;;;;;21.68;73.74;101236.00;15783479;28;20413;-58
2023/08/19 02:16:04;;;;;;;21.38;17.80;;;;;;;21.17;75.42;101233.97;15783748;28;20047;-58
2023/08/19 02:23:38;;;;;;;23.05;18.75;;;;;;;21.32;74.58;101234.03;15827562;28;20044;-56
2023/08/19 02:31:12;;;;;;;27.15;20.23;;;;;;;21.48;74.52;101240.34;15846938;28;20044;-54
2023/08/19 02:38:45;;;;;;;22.58;19.48;;;;;;;21.91;71.84;101236.25;15847245;28;20063;-58
2023/08/19 02:46:19;;;;;;;22.55;19.10;;;;;;;21.10;75.25;101234.22;15846254;28;20050;-55
2023/08/19 02:53:53;;;;;;;26.17;20.27;;;;;;;21.33;74.58;101243.06;15829221;28;20039;-55
2023/08/19 03:01:31;;;;;;;21.38;18.95;;;;;;;21.51;74.03;101256.19;15846213;28;20508;-54
2023/08/19 03:09:04;;;;;;;23.05;19.73;;;;;;;21.46;73.55;101249.91;15838805;28;20055;-57
2023/08/19 03:16:39;;;;;;;24.23;19.45;;;;;;;20.79;75.79;101254.28;15825562;28;20048;-56
2023/08/19 03:24:15;;;;;;;22.52;18.25;;;;;;;21.49;72.87;101255.63;15793896;28;20493;-56
2023/08/19 03:31:49;;;;;;;24.73;19.23;;;;;;;21.23;73.51;101260.19;15793041;28;20469;-58
2023/08/19 03:39:24;;;;;;;21.70;19.40;;;;;;;20.55;76.33;101262.06;15775957;28;20040;-57
2023/08/19 03:46:58;;;;;;;22.60;19.73;;;;;;;21.17;73.96;101258.56;15792698;28;20531;-57
2023/08/19 03:54:31;;;;;;;24.55;19.85;;;;;;;20.90;75.11;101266.91;15788281;28;20046;-57
2023/08/19 04:02:06;;;;;;;20.50;18.13;;;;;;;21.15;73.49;101272.44;15791112;28;20472;-54
2023/08/19 04:09:39;;;;;;;23.60;18.95;;;;;;;21.23;73.31;101268.38;15788362;28;20127;-54
2023/08/19 04:17:14;;;;;;;21.38;19.10;;;;;;;21.37;72.85;101276.94;15782989;28;20047;-59
2023/08/19 04:24:51;;;;;;;22.33;18.40;;;;;;;21.05;73.98;101268.88;15789630;28;20036;-56
2023/08/19 04:32:25;;;;;;;25.75;19.60;;;;;;;21.27;73.98;101277.69;15789269;28;20111;-57
2023/08/19 04:39:58;;;;;;;22.33;18.83;;;;;;;20.95;75.22;101279.75;15788989;28;20040;-56
2023/08/19 04:47:43;;;;;;;24.88;19.25;;;;;;;20.68;76.47;101282.63;15789025;28;20077;-57
2023/08/19 04:55:16;;;;;;;20.73;18.52;;;;;;;20.73;76.67;101282.66;15788935;28;20477;-58
2023/08/19 05:02:51;;;;;;;20.33;18.13;;;;;;;20.88;76.31;101286.25;15787426;28;20044;-57
2023/08/19 05:10:27;;;;;;;20.83;18.42;;;;;;;20.88;76.49;101299.91;15787245;28;20040;-56
2023/08/19 05:18:01;;;;;;;20.17;17.95;;;;;;;21.13;76.33;101287.47;15769496;28;20135;-56
2023/08/19 05:25:35;;;;;;;23.85;19.20;;;;;;;21.19;75.75;101296.50;15785940;28;20062;-57
2023/08/19 05:33:09;;;;;;;20.33;18.08;;;;;;;21.57;74.89;101292.53;15785284;28;20052;-57
2023/08/19 05:40:42;;;;;;;21.50;19.20;;;;;;;21.38;76.15;101303.16;15803643;28;20071;-55
2023/08/19 05:48:19;;;;;;;25.33;19.30;;;;;;;21.94;73.70;101303.25;15803085;28;20047;-56
2023/08/19 05:55:52;;;;;;;24.45;19.95;;;;;;;21.93;73.87;101293.41;15785402;28;20051;-58
2023/08/19 06:03:27;;;;;;;23.38;21.00;;;;;;;22.14;73.33;101294.25;15785463;28;20044;-56
2023/08/19 06:11:02;;;;;;;22.85;20.45;;;;;;;22.38;72.33;101305.44;15802440;28;20064;-56
2023/08/19 06:18:36;;;;;;;26.90;22.50;;;;;;;22.27;73.07;101310.09;15783907;28;20134;-56
2023/08/19 06:26:09;;;;;;;24.90;21.88;;;;;;;22.72;71.21;101329.47;15802096;28;20044;-57
2023/08/19 06:33:44;;;;;;;26.58;22.27;;;;;;;22.85;71.48;101326.16;15783620;28;20040;-57
2023/08/19 06:41:19;;;;;;;24.42;21.83;;;;;;;22.76;72.53;101334.13;15788906;28;20382;-57
2023/08/19 06:48:54;;;;;;;22.48;20.15;;;;;;;23.49;69.37;101335.50;15814173;28;20112;-55
2023/08/19 06:56:33;;;;;;;23.50;19.55;;;;;;;24.10;66.87;101346.09;15797700;28;20471;-61
2023/08/19 07:04:08;;;;;;;23.30;19.45;;;;;;;24.54;65.84;101347.97;15814781;28;20051;-58
2023/08/19 07:11:42;;;;;;;24.30;18.23;;;;;;;25.28;64.10;101341.13;15794991;28;20039;-55
2023/08/19 07:19:20;;;;;;;18.67;16.73;;;;;;;25.35;63.96;101352.56;15811706;28;20480;-58
2023/08/19 07:26:54;;;;;;;19.95;17.33;;;;;;;26.18;60.70;101361.28;15793612;28;20558;-58
2023/08/19 07:34:29;;;;;;;16.98;15.20;;;;;;;26.89;60.02;101359.22;15811104;28;20098;-58
2023/08/19 07:42:02;;;;;;;17.48;15.63;;;;;;;26.97;58.01;101347.50;15792339;28;20481;-55
2023/08/19 07:49:36;;;;;;;15.85;13.35;;;;;;;27.43;60.16;101338.31;15809608;28;20070;-57
2023/08/19 07:57:12;;;;;;;16.17;13.82;;;;;;;27.48;57.72;101334.63;15809396;28;20048;-57
2023/08/19 08:04:46;;;;;;;13.80;12.50;;;;;;;27.79;58.49;101332.81;15774252;28;20131;-56
2023/08/19 08:12:20;;;;;;;14.10;12.40;;;;;;;28.11;54.90;101330.94;15808787;28;20416;-57
2023/08/19 08:19:56;;;;;;;12.65;11.40;;;;;;;28.29;57.15;101327.16;15808521;28;20048;-56
2023/08/19 08:27:29;;;;;;;13.48;11.77;;;;;;;28.82;55.19;101318.03;15807506;28;20365;-56
2023/08/19 08:35:04;;;;;;;11.57;10.38;;;;;;;29.04;53.80;101322.69;15806951;28;20043;-55
2023/08/19 08:42:38;;;;;;;12.05;10.85;;;;;;;29.08;50.70;101320.91;15771640;28;20130;-57
2023/08/19 08:50:14;;;;;;;10.50;9.50;;;;;;;29.41;51.03;101324.06;15788453;28;20127;-57
2023/08/19 08:57:47;;;;;;;9.98;8.98;;;;;;;29.84;48.87;101316.94;15770913;28;20071;-58
2023/08/19 09:05:25;;;;;;;10.65;8.98;;;;;;;30.01;49.43;101322.47;15804436;28;20043;-58
2023/08/19 09:12:59;;;;;;;11.55;8.75;;;;;;;30.93;47.83;101314.56;15789341;22;20059;-51
2023/08/19 09:20:34;;;;;;;9.45;8.55;;;;;;;31.12;45.76;101324.41;15742360;28;20040;-57
2023/08/19 09:28:07;;;;;;;12.63;9.10;;;;;;;31.14;47.43;101324.88;15741353;28;20098;-52
2023/08/19 09:35:41;;;;;;;11.35;8.73;;;;;;;31.30;45.84;101322.38;15739313;28;20055;-57
2023/08/19 09:43:15;;;;;;;9.25;8.20;;;;;;;31.47;46.10;101313.91;15740354;28;20124;-49
2023/08/19 09:50:49;;;;;;;8.73;7.47;;;;;;;31.21;44.72;101317.66;15740095;28;20044;-52
2023/08/19 09:58:25;;;;;;;9.60;7.88;;;;;;;31.58;43.72;101311.56;15738600;28;20075;-53
2023/08/19 10:05:59;;;;;;;9.35;8.43;;;;;;;31.95;42.37;101312.59;15740202;28;20041;-53
2023/08/19 10:13:34;;;;;;;10.30;8.00;;;;;;;31.91;43.24;101308.84;15762539;28;20048;-50
2023/08/19 10:21:11;;;;;;;10.38;8.05;;;;;;;32.62;41.17;101313.34;15780599;28;20591;-51
2023/08/19 10:29:02;;;;;;;10.27;7.72;;;;;;;32.17;42.03;101305.81;15831132;28;20056;-52
2023/08/19 10:36:37;;;;;;;;;;;;;;;32.82;41.39;101312.41;15814743;28;20121;-50
2023/08/19 10:44:12;;;;;;;10.05;7.80;;;;;;;33.22;39.54;101308.94;15795562;28;19920;-52
2023/08/19 10:51:53;;;;;;;13.20;8.00;;;;;;;33.39;39.16;101303.13;15795173;28;20101;-51
2023/08/19 10:59:26;;;;;;;8.98;7.80;;;;;;;33.40;38.51;101298.34;15812423;28;20093;-52
2023/08/19 11:07:02;;;;;;;10.02;7.90;;;;;;;33.29;39.68;101309.13;15794131;28;20044;-51
2023/08/19 11:14:36;;;;;;;10.52;8.13;;;;;;;33.47;39.16;101299.38;15811855;28;20123;-53
2023/08/19 11:22:17;;;;;;;8.88;7.45;;;;;;;33.87;40.02;101289.38;15811408;28;20047;-54
2023/08/19 11:29:50;;;;;;;8.07;6.70;;;;;;;34.14;37.31;101280.22;15811334;28;20101;-49
2023/08/19 11:37:29;;;;;;;9.43;6.53;;;;;;;34.56;36.13;101279.72;15811185;28;20048;-49
2023/08/19 11:45:02;;;;;;;8.95;6.63;;;;;;;34.90;36.69;101285.72;15810022;28;20631;-49
2023/08/19 11:52:37;;;;;;;8.65;6.38;;;;;;;34.37;35.49;101286.00;15809694;28;20076;-49
2023/08/19 12:00:16;;;;;;;7.32;6.63;;;;;;;34.94;35.69;101281.03;15791268;28;20043;-50
2023/08/19 12:07:52;;;;;;;9.65;6.60;;;;;;;35.83;33.07;101271.00;15808705;28;20040;-52
2023/08/19 12:15:26;;;;;;;9.50;6.10;;;;;;;35.92;32.65;101261.19;15789825;28;20447;-49
2023/08/19 12:23:01;;;;;;;7.75;7.00;;;;;;;35.78;32.74;101258.13;15807588;28;20032;-53
2023/08/19 12:30:34;;;;;;;8.50;6.82;;;;;;;35.70;32.69;101262.75;15807476;28;20410;-49
2023/08/19 12:38:09;;;;;;;7.20;6.50;;;;;;;35.76;31.35;101271.66;15788775;28;20080;-50
2023/08/19 12:45:43;;;;;;;7.00;6.05;;;;;;;35.74;32.00;101265.63;15772215;28;20432;-49
2023/08/19 12:53:19;;;;;;;11.60;6.88;;;;;;;36.22;30.68;101271.72;15787946;28;20507;-53
2023/08/19 13:00:52;;;;;;;10.13;6.93;;;;;;;36.75;31.67;101271.84;15805571;28;20083;-53
2023/08/19 13:08:27;;;;;;;7.13;6.22;;;;;;;35.63;34.26;101270.19;15770175;28;20177;-53
2023/08/19 13:16:00;;;;;;;5.63;5.07;;;;;;;36.33;33.20;101267.16;15804225;28;20054;-49
2023/08/19 13:23:36;;;;;;;5.40;4.90;;;;;;;35.71;31.89;101264.38;15804394;28;20444;-48
2023/08/19 13:31:09;;;;;;;5.90;5.07;;;;;;;38.34;28.37;101253.81;15804030;28;20519;-48
2023/08/19 13:38:43;;;;;;;6.05;5.00;;;;;;;37.02;29.43;101241.88;15803522;28;20047;-52
2023/08/19 13:46:17;;;;;;;8.88;5.38;;;;;;;35.77;32.70;101240.56;15785640;28;20044;-50
2023/08/19 13:53:51;;;;;;;7.15;5.70;;;;;;;36.58;30.81;101234.00;15803817;28;20067;-49
2023/08/19 14:01:25;;;;;;;10.00;6.22;;;;;;;35.11;31.60;101224.81;15805355;28;20097;-50
2023/08/19 14:09:00;;;;;;;6.45;5.85;;;;;;;34.27;35.75;101227.97;15804472;28;20044;-49
2023/08/19 14:16:33;;;;;;;7.15;6.38;;;;;;;34.42;35.35;101229.16;15804500;28;20098;-48
2023/08/19 14:24:09;;;;;;;8.32;6.30;;;;;;;33.78;33.66;101225.50;15802721;28;20454;-51
2023/08/19 14:31:42;;;;;;;6.88;6.20;;;;;;;33.34;34.98;101232.94;15801618;28;20048;-52
2023/08/19 14:39:17;;;;;;;8.50;6.07;;;;;;;33.78;35.74;101222.72;15801378;28;20082;-49
2023/08/19 14:46:54;;;;;;;17.83;7.20;;;;;;;32.67;36.39;101230.50;15801443;28;20106;-55
2023/08/19 14:54:31;;;;;;;10.63;6.28;;;;;;;33.41;35.10;101233.97;15802454;28;20047;-49
2023/08/19 15:02:08;;;;;;;7.15;6.45;;;;;;;33.23;38.36;101224.31;15786953;28;20052;-53
2023/08/19 15:09:42;;;;;;;7.25;6.00;;;;;;;33.13;35.56;101231.16;15794841;28;20071;-53
2023/08/19 15:17:15;;;;;;;8.18;6.60;;;;;;;32.97;35.80;101230.28;15811305;28;20072;-49
2023/08/19 15:24:55;;;;;;;13.45;6.32;;;;;;;33.26;36.42;101218.03;15793516;28;20044;-48
2023/08/19 15:32:29;;;;;;;8.60;6.03;;;;;;;33.65;35.91;101243.41;15810619;28;20066;-52
2023/08/19 15:40:05;;;;;;;8.20;5.93;;;;;;;32.26;37.84;101237.06;15810402;28;20048;-49
2023/08/19 15:47:38;;;;;;;8.73;5.72;;;;;;;33.13;36.32;101242.28;15791799;28;20071;-50
2023/08/19 15:55:13;;;;;;;6.38;5.55;;;;;;;32.70;36.55;101231.78;15809910;28;20644;-49
2023/08/19 16:02:47;;;;;;;31.00;6.13;;;;;;;32.96;35.21;101237.81;15792314;28;20066;-53
2023/08/19 16:10:21;;;;;;;8.35;5.60;;;;;;;33.01;35.11;101234.78;15808680;28;20514;-51
2023/08/19 16:17:54;;;;;;;15.20;6.07;;;;;;;32.80;36.30;101233.28;15773610;28;20076;-54
2023/08/19 16:25:29;;;;;;;9.48;5.70;;;;;;;32.92;35.51;101227.72;15789641;28;20042;-55
2023/08/19 16:33:02;;;;;;;7.97;5.50;;;;;;;32.88;36.27;101229.59;15822873;28;20048;-49
2023/08/19 16:40:37;;;;;;;8.43;5.28;;;;;;;32.00;35.07;101232.63;15806570;28;20502;-54
2023/08/19 16:48:10;;;;;;;10.90;5.63;;;;;;;32.52;37.23;101241.53;15806430;28;20052;-50
2023/08/19 16:55:53;;;;;;;9.00;6.10;;;;;;;32.70;35.25;101246.50;15805661;28;20108;-49
2023/08/19 17:03:27;;;;;;;9.77;5.75;;;;;;;32.45;35.10;101254.00;15821298;28;20495;-51
2023/08/19 17:11:02;;;;;;;10.38;6.07;;;;;;;32.52;36.64;101238.75;15805789;28;20500;-54
2023/08/19 17:18:38;;;;;;;16.27;6.60;;;;;;;32.74;38.74;101246.63;15804472;28;20043;-50
2023/08/19 17:26:12;;;;;;;10.98;6.50;;;;;;;32.58;39.20;101254.03;15803537;28;20830;-53
2023/08/19 17:33:47;;;;;;;9.25;6.28;;;;;;;32.42;40.37;101254.72;15803536;28;20051;-55
2023/08/19 17:41:22;;;;;;;7.75;5.82;;;;;;;31.95;41.40;101245.94;15785785;28;20389;-53
2023/08/19 17:48:55;;;;;;;8.48;6.57;;;;;;;31.62;46.60;101255.03;15803024;28;20048;-54
2023/08/19 17:56:30;;;;;;;8.65;7.32;;;;;;;30.89;47.32;101269.25;15784696;28;20124;-53
2023/08/19 18:04:03;;;;;;;12.30;7.47;;;;;;;30.27;49.22;101280.91;15802351;28;20062;-52
2023/08/19 18:11:37;;;;;;;9.40;7.03;;;;;;;29.89;48.49;101273.31;15802908;28;20415;-53
2023/08/19 18:19:12;;;;;;;10.82;6.57;;;;;;;30.14;47.59;101281.94;15802880;28;20051;-54
2023/08/19 18:26:46;;;;;;;12.73;7.20;;;;;;;29.80;47.19;101293.81;15786628;28;20048;-49
2023/08/19 18:34:19;;;;;;;7.53;6.82;;;;;;;29.87;48.60;101294.97;15783775;28;20040;-53
2023/08/19 18:41:53;;;;;;;8.93;7.97;;;;;;;29.50;51.21;101310.25;15796037;28;20040;-54
2023/08/19 18:49:26;;;;;;;9.68;8.23;;;;;;;28.99;53.35;101309.00;15795438;28;20036;-52
2023/08/19 18:57:01;;;;;;;9.20;8.02;;;;;;;28.66;53.82;101322.34;15778100;28;20044;-53
2023/08/19 19:04:36;;;;;;;12.13;9.57;;;;;;;28.32;55.18;101332.06;15812435;28;20557;-53
2023/08/19 19:12:12;;;;;;;13.00;10.32;;;;;;;28.11;55.40;101330.94;15811679;28;20052;-52
2023/08/19 19:19:45;;;;;;;13.23;10.68;;;;;;;27.86;56.28;101343.41;15812448;28;20507;-52
2023/08/19 19:27:21;;;;;;;15.15;10.73;;;;;;;27.76;56.84;101344.47;15811701;28;20040;-51
2023/08/19 19:34:56;;;;;;;12.07;10.43;;;;;;;27.52;56.57;101335.63;15776987;28;20131;-54
2023/08/19 19:42:31;;;;;;;11.95;10.60;;;;;;;27.44;57.38;101337.19;15792243;28;20048;-54
2023/08/19 19:50:06;;;;;;;11.90;10.70;;;;;;;27.31;58.06;101336.06;15809789;28;20123;-54
2023/08/19 19:57:40;;;;;;;13.98;10.70;;;;;;;27.02;58.27;101343.81;15791507;28;20047;-52
2023/08/19 20:05:13;;;;;;;13.68;10.95;;;;;;;27.01;57.95;101342.19;15773931;28;20047;-54
2023/08/19 20:12:48;;;;;;;12.32;11.13;;;;;;;26.83;58.32;101344.72;15774737;28;20048;-54
2023/08/19 20:20:21;;;;;;;12.65;11.20;;;;;;;26.71;58.84;101345.22;15790303;28;20044;-51
2023/08/19 20:27:55;;;;;;;14.30;12.15;;;;;;;26.72;58.66;101346.06;15808794;28;20071;-54
2023/08/19 20:35:28;;;;;;;15.40;12.98;;;;;;;26.48;59.61;101342.63;15789805;28;20051;-51
2023/08/19 20:43:04;;;;;;;19.48;14.88;;;;;;;26.52;60.84;101346.41;15805716;28;20051;-50
2023/08/19 20:50:37;;;;;;;17.17;15.02;;;;;;;26.48;61.24;101351.72;15822242;28;20101;-54
2023/08/19 20:58:11;;;;;;;17.02;14.63;;;;;;;26.38;61.47;101349.91;15805262;28;20083;-50
2023/08/19 21:05:44;;;;;;;19.73;17.42;;;;;;;26.13;61.95;101351.19;15805300;28;20051;-51
2023/08/19 21:13:19;;;;;;;24.00;21.60;;;;;;;26.13;61.87;101353.94;15805065;28;20059;-54
2023/08/19 21:20:56;;;;;;;23.70;21.20;;;;;;;25.87;63.17;101364.50;15787016;28;20175;-52
2023/08/19 21:28:33;;;;;;;25.23;21.55;;;;;;;25.83;62.85;101360.72;15786960;28;20447;-53
2023/08/19 21:36:07;;;;;;;22.60;20.23;;;;;;;25.78;62.74;101366.28;15804672;28;20051;-49
2023/08/19 21:43:41;;;;;;;23.38;19.88;;;;;;;25.73;63.37;101363.56;15785344;28;20044;-52
2023/08/19 21:51:14;;;;;;;21.92;19.55;;;;;;;25.76;63.21;101378.72;15803336;28;20044;-52
2023/08/19 21:58:49;;;;;;;20.73;18.52;;;;;;;25.67;63.45;101362.84;15784852;28;20086;-50
2023/08/19 22:06:22;;;;;;;23.27;19.15;;;;;;;25.56;63.80;101372.34;15802380;28;20090;-52
2023/08/19 22:13:58;;;;;;;21.42;18.65;;;;;;;25.23;65.27;101376.06;15801866;28;20438;-54
2023/08/19 22:21:31;;;;;;;21.30;18.10;;;;;;;25.27;65.18;101388.91;15802098;28;20495;-55
2023/08/19 22:29:06;;;;;;;19.08;17.02;;;;;;;25.58;63.89;101391.28;15801939;28;20130;-51
2023/08/19 22:36:39;;;;;;;23.20;18.33;;;;;;;25.39;64.64;101375.59;15801701;28;20381;-50
2023/08/19 22:44:13;;;;;;;19.50;17.50;;;;;;;25.62;64.27;101382.16;15784377;28;20040;-55
2023/08/19 22:51:46;;;;;;;17.90;15.82;;;;;;;25.44;64.33;101391.19;15783549;28;20071;-53
2023/08/19 22:59:20;;;;;;;19.30;15.95;;;;;;;24.81;66.60;101385.84;15800953;28;20048;-50
2023/08/19 23:06:53;;;;;;;17.38;15.63;;;;;;;24.64;67.10;101392.59;15800589;28;20127;-48
2023/08/19 23:14:30;;;;;;;17.23;15.43;;;;;;;25.23;65.68;101371.41;15781781;28;20120;-54
2023/08/19 23:22:04;;;;;;;20.60;15.88;;;;;;;25.17;66.88;101364.31;15784646;28;20084;-54
2023/08/19 23:29:38;;;;;;;19.15;16.33;;;;;;;25.57;65.11;101367.66;15793387;28;20036;-52
2023/08/19 23:37:11;;;;;;;17.70;15.73;;;;;;;25.30;65.63;101368.28;15774860;28;20098;-52
2023/08/19 23:44:45;;;;;;;20.17;16.33;;;;;;;25.42;65.76;101369.50;15792849;28;20040;-50
2023/08/19 23:52:21;;;;;;;18.67;16.50;;;;;;;24.77;67.18;101376.56;15792800;28;20036;-52
2023/08/19 23:59:56;;;;;;;18.92;16.85;;;;;;;25.16;65.69;101385.47;15808569;28;20044;-53
